Time;durP1;ratioP1;P1;durP2;ratioP2;P2;SDS_P1;SDS_P2;PMS_P1;PMS_P2;Temp;Humidity;BMP_temperature;BMP_pressure;BME280_temperature;BME280_humidity;BME280_pressure;Samples;Min_cycle;Max_cycle;Signal;HPM_P1;HPM_P2
2022/11/20 00:00:06;;;;;;;;;;;;;;;5.55;100.00;99128.22;6340214;22;19933;-89
2022/11/20 00:02:31;;;;;;;;;;;;;;;5.51;100.00;99118.69;6340390;22;19911;-88
2022/11/20 00:04:57;;;;;;;;;;;;;;;5.52;100.00;99123.06;6338483;22;19945;-87
2022/11/20 00:07:22;;;;;;;;;;;;;;;5.48;100.00;99121.41;6340095;22;20318;-84
2022/11/20 00:09:48;;;;;;;;;;;;;;;5.50;100.00;99119.59;6338280;22;19918;-83
2022/11/20 00:12:13;;;;;;;;;;;;;;;5.54;100.00;99118.59;6313190;22;19910;-84
2022/11/20 00:14:38;;;;;;;;;;;;;;;5.55;100.00;99119.44;6312945;22;19919;-91
2022/11/20 00:17:04;;;;;;;;;;;;;;;5.60;100.00;99118.41;6313086;22;20241;-91
2022/11/20 00:19:29;;;;;;;;;;;;;;;5.59;100.00;99119.28;6312529;22;20038;-84
2022/11/20 00:21:55;;;;;;;;;;;;;;;5.60;100.00;99113.13;6340310;22;19949;-87
2022/11/20 00:24:20;;;;;;;;;;;;;;;5.64;100.00;99117.38;6337336;22;20367;-87
2022/11/20 00:26:46;;;;;;;;;;;;;;;5.64;100.00;99119.16;6313954;22;19911;-90
2022/11/20 00:29:11;;;;;;;;;;;;;;;5.58;100.00;99117.56;6340840;22;19911;-87
2022/11/20 00:31:36;;;;;;;;;;;;;;;5.64;100.00;99122.63;6340075;22;19990;-86
2022/11/20 00:34:03;;;;;;;;;;;;;;;5.62;100.00;99118.34;6338620;22;19910;-87
2022/11/20 00:36:31;;;;;;;;;;;;;;;5.62;100.00;99124.44;6340262;22;19993;-87
2022/11/20 00:38:57;;;;;;;;;;;;;;;5.62;100.00;99123.59;6311380;22;19942;-92
2022/11/20 00:41:23;;;;;;;;;;;;;;;5.63;100.00;99126.19;6339751;22;19918;-88
2022/11/20 00:43:50;;;;;;;;;;;;;;;5.63;100.00;99120.03;6313173;22;19911;-91
2022/11/20 00:46:19;;;;;;;;;;;;;;;5.69;100.00;99130.34;6339069;22;19946;-89
2022/11/20 00:48:45;;;;;;;;;;;;;;;5.72;100.00;99119.75;6313442;22;19911;-89
2022/11/20 00:51:11;;;;;;;;;;;;;;;5.73;100.00;99123.25;6340134;22;19956;-85
2022/11/20 00:53:47;;;;;;;;;;;;;;;5.74;100.00;99122.31;6311183;22;19915;-87
2022/11/20 00:56:14;;;;;;;;;;;;;;;5.77;100.00;99122.22;6340650;22;19911;-90
2022/11/20 00:58:40;;;;;;;;;;;;;;;5.80;100.00;99122.13;6341020;22;19922;-92
2022/11/20 01:01:05;;;;;;;;;;;;;;;5.80;100.00;99127.38;6312869;22;19910;-86
2022/11/20 01:03:32;;;;;;;;;;;;;;;5.83;100.00;99122.00;6340734;22;19942;-92
2022/11/20 01:06:02;;;;;;;;;;;;;;;5.83;100.00;99120.25;6340048;22;19980;-88
2022/11/20 01:08:34;;;;;;;;;;;;;;;5.85;100.00;99124.59;6339236;22;19978;-89
2022/11/20 01:11:05;;;;;;;;;;;;;;;5.88;100.00;99122.72;6340590;22;19989;-94
2022/11/20 01:13:36;;;;;;;;;;;;;;;5.90;100.00;99130.56;6340546;22;19960;-92
2022/11/20 01:16:08;;;;;;;;;;;;;;;5.93;100.00;99120.78;6340767;22;19940;-94
2022/11/20 01:18:33;;;;;;;;;;;;;;;5.97;100.00;99129.47;6339321;22;19918;-91
2022/11/20 01:21:06;;;;;;;;;;;;;;;5.97;100.00;99122.44;6340786;22;19911;-94
2022/11/20 01:23:35;;;;;;;;;;;;;;;5.97;100.00;99129.47;6338995;22;20029;-93
2022/11/20 01:26:02;;;;;;;;;;;;;;;5.99;100.00;99128.50;6340574;22;19942;-87
2022/11/20 01:28:28;;;;;;;;;;;;;;;5.99;100.00;99120.59;6338897;22;19919;-85
2022/11/20 01:30:53;;;;;;;;;;;;;;;6.02;100.00;99127.53;6339450;22;19946;-89
2022/11/20 01:33:18;;;;;;;;;;;;;;;5.99;100.00;99128.50;6340382;22;19911;-89
2022/11/20 01:35:43;;;;;;;;;;;;;;;6.03;100.00;99128.38;6341345;22;20338;-93
2022/11/20 01:38:09;;;;;;;;;;;;;;;6.05;100.00;99122.19;6339738;22;19910;-90
2022/11/20 01:40:34;;;;;;;;;;;;;;;6.05;100.00;99127.44;6338804;22;19915;-92
2022/11/20 01:43:21;;;;;;;;;;;;;;;6.06;100.00;99129.13;6340061;22;19911;-90
2022/11/20 01:46:01;;;;;;;;;;;;;;;6.13;100.00;99127.16;6339867;22;19910;-86
2022/11/20 01:48:33;;;;;;;;;;;;;;;6.10;100.00;99124.66;6339923;22;19915;-87
2022/11/20 01:51:00;;;;;;;;;;;;;;;6.15;100.00;99125.34;6340066;22;19913;-92
2022/11/20 01:53:35;;;;;;;;;;;;;;;6.17;100.00;99121.75;6338997;22;19915;-92
2022/11/20 01:56:14;;;;;;;;;;;;;;;6.20;100.00;99118.13;6364259;22;19934;-92
2022/11/20 01:58:43;;;;;;;;;;;;;;;6.35;100.00;99129.88;6339278;22;19911;-91
2022/11/20 02:01:09;;;;;;;;;;;;;;;6.30;100.00;99130.06;6339150;22;20310;-88
2022/11/20 02:03:34;;;;;;;;;;;;;;;6.31;100.00;99123.88;6339764;22;19964;-92
2022/11/20 02:06:29;;;;;;;;;;;;;;;6.31;100.00;99121.22;6339291;22;20314;-92
2022/11/20 02:08:54;;;;;;;;;;;;;;;6.32;100.00;99120.34;6310392;22;19949;-91
2022/11/20 02:11:20;;;;;;;;;;;;;;;6.33;100.00;99110.66;6339692;22;19914;-91
2022/11/20 02:13:45;;;;;;;;;;;;;;;6.34;100.00;99121.13;6339734;22;19960;-93
2022/11/20 02:16:25;;;;;;;;;;;;;;;6.38;100.00;99110.50;6337943;22;19910;-91
2022/11/20 02:18:51;;;;;;;;;;;;;;;6.42;100.00;99112.97;6339583;22;20327;-92
2022/11/20 02:21:37;;;;;;;;;;;;;;;6.43;100.00;99113.81;6339506;22;20315;-91
2022/11/20 02:24:08;;;;;;;;;;;;;;;6.44;100.00;99105.84;6338320;22;19911;-91
2022/11/20 02:26:44;;;;;;;;;;;;;;;6.44;100.00;99110.28;6337813;22;19946;-90
2022/11/20 02:29:10;;;;;;;;;;;;;;;6.47;100.00;99113.66;6339456;22;20327;-92
2022/11/20 02:31:41;;;;;;;;;;;;;;;6.48;100.00;99101.38;6339519;22;19906;-91
2022/11/20 02:34:06;;;;;;;;;;;;;;;6.48;100.00;99104.00;6339252;22;19989;-91
2022/11/20 02:36:32;;;;;;;;;;;;;;;6.53;100.00;99107.31;6339425;22;20338;-89
2022/11/20 02:38:57;;;;;;;;;;;;;;;6.52;100.00;99105.59;6362566;22;19910;-89
2022/11/20 02:56:57;;;;;;;;;;;;;;;6.65;100.00;99096.31;6150906;22;19922;-92
2022/11/20 02:59:22;;;;;;;;;;;;;;;6.66;100.00;99095.38;6337497;22;19914;-90
2022/11/20 03:01:47;;;;;;;;;;;;;;;6.68;100.00;99101.44;6339536;22;19910;-87
2022/11/20 03:04:13;;;;;;;;;;;;;;;6.72;100.00;99095.16;6339438;22;19989;-90
2022/11/20 03:06:38;;;;;;;;;;;;;;;6.76;100.00;99095.06;6337849;22;19960;-84
2022/11/20 03:09:03;;;;;;;;;;;;;;;6.74;100.00;99089.84;6338447;22;20281;-90
2022/11/20 03:11:28;;;;;;;;;;;;;;;6.73;100.00;99089.00;6337831;22;19911;-92
2022/11/20 03:13:54;;;;;;;;;;;;;;;6.72;100.00;99086.41;6339639;22;19942;-93
2022/11/20 03:16:20;;;;;;;;;;;;;;;6.76;100.00;99088.00;6339250;22;19933;-84
2022/11/20 03:18:45;;;;;;;;;;;;;;;6.73;100.00;99086.34;6338847;22;20314;-89
2022/11/20 03:21:11;;;;;;;;;;;;;;;6.76;100.00;99079.25;6339163;22;19989;-86
2022/11/20 03:23:37;;;;;;;;;;;;;;;6.82;100.00;99084.28;6338838;22;19915;-87
2022/11/20 03:26:11;;;;;;;;;;;;;;;6.84;100.00;99082.44;6337257;22;19911;-87
2022/11/20 03:28:37;;;;;;;;;;;;;;;6.88;100.00;99081.41;6338700;22;20296;-88
2022/11/20 03:31:06;;;;;;;;;;;;;;;6.87;100.00;99079.69;6338991;22;19918;-86
2022/11/20 03:33:32;;;;;;;;;;;;;;;6.89;100.00;99081.34;6338845;22;20353;-87
2022/11/20 03:36:01;;;;;;;;;;;;;;;6.90;100.00;99069.88;6338915;22;19912;-87
2022/11/20 03:38:28;;;;;;;;;;;;;;;6.90;100.00;99074.31;6338928;22;20017;-87
2022/11/20 03:40:57;;;;;;;;;;;;;;;6.91;100.00;99076.03;6338143;22;19994;-87
2022/11/20 03:43:23;;;;;;;;;;;;;;;6.96;100.00;99073.22;6338801;22;19915;-87
2022/11/20 03:45:48;;;;;;;;;;;;;;;6.97;100.00;99074.91;6338827;22;20360;-87
2022/11/20 03:48:13;;;;;;;;;;;;;;;6.98;100.00;99084.53;6338770;22;19911;-87
2022/11/20 03:50:39;;;;;;;;;;;;;;;7.00;100.00;99075.66;6339094;22;20230;-87
2022/11/20 03:53:04;;;;;;;;;;;;;;;7.00;100.00;99080.91;6339069;22;20371;-88
2022/11/20 03:55:29;;;;;;;;;;;;;;;7.02;100.00;99079.09;6338937;22;19911;-86
2022/11/20 03:57:55;;;;;;;;;;;;;;;7.03;100.00;99074.69;6337346;22;19918;-91
2022/11/20 04:00:20;;;;;;;;;;;;;;;7.03;100.00;99080.78;6338903;22;19993;-93
2022/11/20 04:02:45;;;;;;;;;;;;;;;7.04;100.00;99074.63;6339174;22;19967;-90
2022/11/20 04:05:11;;;;;;;;;;;;;;;7.06;100.00;99079.81;6338812;22;20344;-89
2022/11/20 04:07:36;;;;;;;;;;;;;;;7.06;100.00;99072.78;6338673;22;20310;-91
2022/11/20 04:10:01;;;;;;;;;;;;;;;7.11;100.00;99074.38;6338646;22;19993;-90
2022/11/20 04:12:26;;;;;;;;;;;;;;;7.12;100.00;99084.00;6337044;22;19910;-89
2022/11/20 04:14:52;;;;;;;;;;;;;;;7.14;100.00;99082.16;6338682;22;19980;-87
2022/11/20 04:17:17;;;;;;;;;;;;;;;7.14;100.00;99072.47;6337223;22;19984;-91
2022/11/20 04:19:42;;;;;;;;;;;;;;;7.18;100.00;99078.47;6338529;22;20339;-91
2022/11/20 04:22:08;;;;;;;;;;;;;;;7.18;100.00;99071.44;6338635;22;19952;-90
2022/11/20 04:24:33;;;;;;;;;;;;;;;7.16;100.00;99080.31;6338451;22;20345;-90
2022/11/20 04:26:58;;;;;;;;;;;;;;;7.17;100.00;99076.78;6337264;22;19989;-90
2022/11/20 04:29:24;;;;;;;;;;;;;;;7.23;100.00;99082.66;6338754;22;19917;-90
2022/11/20 04:31:51;;;;;;;;;;;;;;;7.21;100.00;99079.22;6340595;22;19906;-89
2022/11/20 04:34:19;;;;;;;;;;;;;;;7.26;100.00;99084.31;6337250;22;19910;-85
2022/11/20 04:36:44;;;;;;;;;;;;;;;7.28;100.00;99079.81;6337516;22;19910;-88
2022/11/20 04:39:14;;;;;;;;;;;;;;;7.29;100.00;99078.88;6337448;22;19986;-83
2022/11/20 04:41:39;;;;;;;;;;;;;;;7.30;100.00;99077.97;6335797;22;19990;-87
2022/11/20 04:44:05;;;;;;;;;;;;;;;7.32;100.00;99083.19;6311461;22;20397;-86
2022/11/20 04:46:35;;;;;;;;;;;;;;;7.35;100.00;99081.28;6337314;22;19910;-84
2022/11/20 04:49:00;;;;;;;;;;;;;;;7.37;100.00;99082.09;6337648;22;20291;-84
2022/11/20 04:51:29;;;;;;;;;;;;;;;7.40;100.00;99074.06;6311381;22;19940;-89
2022/11/20 04:53:54;;;;;;;;;;;;;;;7.40;100.00;99081.97;6337357;22;19981;-85
2022/11/20 04:56:19;;;;;;;;;;;;;;;7.40;100.00;99079.34;6335742;22;19942;-86
2022/11/20 04:58:44;;;;;;;;;;;;;;;7.42;100.00;99077.47;6321369;22;20330;-85
2022/11/20 05:01:20;;;;;;;;;;;;;;;7.45;100.00;99079.13;6340086;22;20326;-88
2022/11/20 05:03:45;;;;;;;;;;;;;;;7.46;100.00;99083.47;6364830;22;19910;-84
2022/11/20 05:06:11;;;;;;;;;;;;;;;7.44;100.00;99080.91;6339909;22;19971;-86
2022/11/20 05:08:37;;;;;;;;;;;;;;;7.46;100.00;99079.06;6340090;22;19911;-86
2022/11/20 05:11:03;;;;;;;;;;;;;;;7.49;100.00;99074.59;6338312;22;20030;-85
2022/11/20 05:13:29;;;;;;;;;;;;;;;7.50;100.00;99073.66;6340027;22;19911;-86
2022/11/20 05:15:54;;;;;;;;;;;;;;;7.52;100.00;99077.97;6340441;22;19917;-85
2022/11/20 05:18:20;;;;;;;;;;;;;;;7.53;100.00;99065.63;6340104;22;19915;-86
2022/11/20 05:20:45;;;;;;;;;;;;;;;7.56;100.00;99070.78;6338288;22;19919;-85
2022/11/20 05:23:10;;;;;;;;;;;;;;;7.55;100.00;99074.34;6338434;22;19914;-87
2022/11/20 05:25:35;;;;;;;;;;;;;;;7.56;100.00;99079.56;6339635;22;19914;-87
2022/11/20 05:28:01;;;;;;;;;;;;;;;7.61;100.00;99071.44;6338187;22;19979;-86
2022/11/20 05:30:26;;;;;;;;;;;;;;;7.61;100.00;99066.16;6339609;22;19911;-86
2022/11/20 05:32:51;;;;;;;;;;;;;;;7.63;100.00;99075.72;6338192;22;19911;-86
2022/11/20 05:35:16;;;;;;;;;;;;;;;7.64;100.00;99071.31;6340086;22;20058;-87
2022/11/20 05:37:42;;;;;;;;;;;;;;;7.68;100.00;99070.25;6339574;22;19911;-84
2022/11/20 05:40:07;;;;;;;;;;;;;;;7.71;100.00;99083.31;6339660;22;19942;-86
2022/11/20 05:42:33;;;;;;;;;;;;;;;7.74;100.00;99077.06;6338021;22;20238;-86
2022/11/20 05:44:59;;;;;;;;;;;;;;;7.73;100.00;99076.19;6339694;22;19911;-86
2022/11/20 05:47:24;;;;;;;;;;;;;;;7.74;100.00;99077.91;6339651;22;19918;-87
2022/11/20 05:49:49;;;;;;;;;;;;;;;7.76;100.00;99086.63;6339624;22;19910;-86
2022/11/20 05:52:15;;;;;;;;;;;;;;;7.76;100.00;99081.34;6338031;22;19907;-88
2022/11/20 05:54:40;;;;;;;;;;;;;;;7.77;100.00;99077.78;6337935;22;20211;-88
2022/11/20 05:57:05;;;;;;;;;;;;;;;7.80;100.00;99077.66;6337748;22;19910;-85
2022/11/20 05:59:30;;;;;;;;;;;;;;;7.80;100.00;99082.94;6339487;22;20288;-87
2022/11/20 06:01:56;;;;;;;;;;;;;;;7.84;100.00;99083.66;6364669;22;19919;-89
2022/11/20 13:53:19;;;;;;;;;;;;;;;6.21;100.00;98964.66;6294822;22;20287;-87
2022/11/20 13:56:23;;;;;;;;;;;;;;;6.08;100.00;98963.38;6364701;22;19915;-90
2022/11/20 13:59:06;;;;;;;;;;;;;;;5.93;100.00;98963.00;6219663;23;19923;-90
2022/11/20 14:01:32;;;;;;;;;;;;;;;5.90;100.00;98963.13;6219692;23;19912;-89
2022/11/20 14:03:58;;;;;;;;;;;;;;;5.76;100.00;98957.50;6300134;22;19956;-87
2022/11/20 14:06:28;;;;;;;;;;;;;;;5.67;100.00;98963.13;6363006;22;19921;-88
2022/11/20 14:08:53;;;;;;;;;;;;;;;5.59;100.00;98961.59;6365080;22;19911;-90
2022/11/20 14:11:24;;;;;;;;;;;;;;;6.40;100.00;98953.41;6339573;22;19914;-89
2022/11/20 14:14:00;;;;;;;;;;;;;;;6.90;100.00;98959.28;6340124;22;20355;-89
2022/11/20 14:16:27;;;;;;;;;;;;;;;7.23;100.00;98960.59;6364551;22;19911;-88
2022/11/20 14:18:52;;;;;;;;;;;;;;;7.41;100.00;98949.25;6339345;22;19910;-86
2022/11/20 14:21:28;;;;;;;;;;;;;;;7.58;100.00;98945.03;6339124;22;19915;-88
2022/11/20 14:24:03;;;;;;;;;;;;;;;7.74;100.00;98943.44;6364434;22;20279;-88
2022/11/20 14:26:29;;;;;;;;;;;;;;;7.89;100.00;98933.09;6364387;22;19918;-88
2022/11/20 14:28:54;;;;;;;;;;;;;;;7.98;100.00;98944.09;6339317;22;19919;-88
2022/11/20 14:31:24;;;;;;;;;;;;;;;8.08;100.00;98939.25;6337591;22;20298;-87
2022/11/20 14:33:50;;;;;;;;;;;;;;;8.17;100.00;98938.81;6339889;22;19968;-88
2022/11/20 14:36:20;;;;;;;;;;;;;;;8.23;100.00;98937.66;6338110;22;20389;-87
2022/11/20 14:38:46;;;;;;;;;;;;;;;8.29;100.00;98931.25;6339391;22;19918;-87
2022/11/20 14:41:19;;;;;;;;;;;;;;;8.33;100.00;98927.56;6363955;22;19907;-89
2022/11/20 14:43:49;;;;;;;;;;;;;;;8.37;100.00;98927.31;6339458;22;19917;-90
2022/11/20 14:46:15;;;;;;;;;;;;;;;8.43;100.00;98926.22;6363733;22;20241;-90
2022/11/20 14:48:47;;;;;;;;;;;;;;;8.50;100.00;98925.00;6336470;22;19911;-89
2022/11/20 14:51:33;;;;;;;;;;;;;;;8.51;100.00;98921.41;6337580;22;19918;-88
2022/11/20 14:54:15;;;;;;;;;;;;;;;8.59;100.00;98907.00;6338233;22;19918;-88
2022/11/20 14:56:40;;;;;;;;;;;;;;;8.62;100.00;98906.84;6339180;22;20381;-87
2022/11/20 14:59:07;;;;;;;;;;;;;;;8.65;100.00;98906.72;6363618;22;19949;-88
2022/11/20 15:01:33;;;;;;;;;;;;;;;8.67;100.00;98903.03;6339246;22;19989;-89
2022/11/20 15:04:17;;;;;;;;;;;;;;;8.69;100.00;98900.31;6363604;22;19915;-89
2022/11/20 15:06:49;;;;;;;;;;;;;;;8.73;100.00;98896.63;6362240;22;19917;-88
2022/11/20 15:09:15;;;;;;;;;;;;;;;8.74;100.00;98887.75;6363747;22;19921;-88
2022/11/20 15:11:51;;;;;;;;;;;;;;;8.78;100.00;98888.47;6339254;22;19957;-89
2022/11/20 15:14:16;;;;;;;;;;;;;;;8.79;100.00;98892.81;6363561;22;20084;-90
2022/11/20 15:16:41;;;;;;;;;;;;;;;8.82;100.00;98887.38;6339115;22;20286;-88
2022/11/20 15:19:14;;;;;;;;;;;;;;;8.84;100.00;98886.38;6337178;22;19918;-86
2022/11/20 15:21:40;;;;;;;;;;;;;;;8.86;100.00;98883.66;6335709;22;19914;-86
2022/11/20 15:24:08;;;;;;;;;;;;;;;8.87;100.00;98883.59;6337611;22;19910;-88
2022/11/20 15:26:34;;;;;;;;;;;;;;;8.88;100.00;98874.69;6363536;22;19910;-89
2022/11/20 15:28:59;;;;;;;;;;;;;;;8.93;100.00;98884.19;6338994;22;19911;-89
2022/11/20 15:31:25;;;;;;;;;;;;;;;8.95;100.00;98867.34;6338952;22;20314;-87
2022/11/20 15:33:50;;;;;;;;;;;;;;;8.96;100.00;98869.03;6338937;22;19910;-88
2022/11/20 15:36:18;;;;;;;;;;;;;;;8.98;100.00;98880.38;6336277;22;19917;-90
2022/11/20 15:38:46;;;;;;;;;;;;;;;9.00;100.00;98869.72;6337884;22;20300;-89
2022/11/20 15:41:11;;;;;;;;;;;;;;;9.01;100.00;98861.72;6337916;22;19945;-85
2022/11/20 15:43:39;;;;;;;;;;;;;;;9.01;100.00;98867.00;6337995;22;19906;-94
2022/11/20 15:46:06;;;;;;;;;;;;;;;7.64;100.00;98873.56;6336043;22;20283;-88
2022/11/20 15:48:34;;;;;;;;;;;;;;;6.90;100.00;98866.25;6362585;22;19910;-88
2022/11/20 15:51:09;;;;;;;;;;;;;;;6.64;100.00;98867.34;6335984;22;19960;-89
2022/11/20 15:53:34;;;;;;;;;;;;;;;6.36;100.00;98863.19;6337564;22;19921;-89
2022/11/20 15:55:59;;;;;;;;;;;;;;;6.16;100.00;98869.28;6337693;22;20274;-89
2022/11/20 15:58:26;;;;;;;;;;;;;;;6.02;100.00;98863.69;6337729;22;19911;-90
2022/11/20 16:00:51;;;;;;;;;;;;;;;5.96;100.00;98865.63;6337874;22;19942;-88
2022/11/20 16:03:17;;;;;;;;;;;;;;;5.86;100.00;98869.50;6337502;22;19921;-88
2022/11/20 16:05:42;;;;;;;;;;;;;;;5.75;100.00;98866.44;6334750;22;19910;-89
2022/11/20 16:08:07;;;;;;;;;;;;;;;5.70;100.00;98863.13;6362363;22;20321;-90
2022/11/20 16:10:33;;;;;;;;;;;;;;;5.61;100.00;98859.91;6337831;22;19956;-91
2022/11/20 16:15:46;;;;;;;;;;;;;;;6.34;100.00;98855.38;6337636;22;20445;-87
2022/11/20 16:18:12;;;;;;;;;;;;;;;6.89;100.00;98856.63;6337811;22;19910;-86
2022/11/20 16:20:38;;;;;;;;;;;;;;;7.19;100.00;98848.34;6335982;22;19981;-86
2022/11/20 16:23:03;;;;;;;;;;;;;;;7.39;100.00;98840.41;6335861;22;19938;-85
2022/11/20 16:25:29;;;;;;;;;;;;;;;7.55;100.00;98845.00;6337925;22;19918;-87
2022/11/20 16:27:54;;;;;;;;;;;;;;;7.68;100.00;98846.13;6339484;22;19910;-85
2022/11/20 16:30:19;;;;;;;;;;;;;;;7.80;100.00;98845.56;6339170;22;19918;-86
2022/11/20 16:32:44;;;;;;;;;;;;;;;7.94;100.00;98850.19;6339158;22;20246;-86
2022/11/20 16:35:10;;;;;;;;;;;;;;;8.07;100.00;98841.69;6339473;22;19964;-87
2022/11/20 16:38:19;;;;;;;;;;;;;;;8.12;100.00;98845.84;6337474;22;19964;-86
2022/11/20 16:40:45;;;;;;;;;;;;;;;8.22;100.00;98829.53;6328398;22;19911;-87
2022/11/20 16:43:12;;;;;;;;;;;;;;;8.29;100.00;98836.25;6339091;22;20288;-87
2022/11/20 16:45:42;;;;;;;;;;;;;;;8.35;100.00;98826.25;6364105;22;19938;-88
2022/11/20 16:48:10;;;;;;;;;;;;;;;8.40;100.00;98833.94;6363807;22;20226;-88
2022/11/20 16:50:36;;;;;;;;;;;;;;;8.48;100.00;98831.81;6362524;22;19933;-88
2022/11/20 16:53:01;;;;;;;;;;;;;;;8.52;100.00;98830.72;6338857;22;20319;-87
2022/11/20 16:55:26;;;;;;;;;;;;;;;8.58;100.00;98818.16;6339700;22;19915;-87
2022/11/20 16:57:51;;;;;;;;;;;;;;;8.63;100.00;98808.19;6339779;22;20298;-86
2022/11/20 17:00:17;;;;;;;;;;;;;;;8.64;100.00;98823.13;6337871;22;19956;-87
2022/11/20 17:02:42;;;;;;;;;;;;;;;8.66;100.00;98818.63;6338800;22;20242;-87
2022/11/20 17:05:07;;;;;;;;;;;;;;;8.68;100.00;98806.19;6339074;22;19910;-87
2022/11/20 17:07:33;;;;;;;;;;;;;;;8.72;100.00;98811.22;6335801;22;19961;-88
2022/11/20 17:09:59;;;;;;;;;;;;;;;8.77;100.00;98816.28;6339338;22;20440;-86
2022/11/20 17:12:25;;;;;;;;;;;;;;;8.77;100.00;98811.00;6338727;22;19911;-85
2022/11/20 17:15:09;;;;;;;;;;;;;;;8.79;100.00;98808.28;6339001;22;20241;-86
2022/11/20 17:17:34;;;;;;;;;;;;;;;8.84;100.00;98816.81;6363903;22;19998;-85
2022/11/20 17:20:00;;;;;;;;;;;;;;;8.84;100.00;98811.53;6337058;22;19910;-86
2022/11/20 17:22:26;;;;;;;;;;;;;;;8.87;100.00;98801.69;6337351;22;19918;-86
2022/11/20 17:24:51;;;;;;;;;;;;;;;8.91;100.00;98810.28;6338931;22;19910;-86
2022/11/20 17:27:17;;;;;;;;;;;;;;;8.92;100.00;98804.09;6338646;22;20234;-87
2022/11/20 17:29:42;;;;;;;;;;;;;;;8.94;100.00;98798.72;6336512;22;19917;-86
2022/11/20 17:32:07;;;;;;;;;;;;;;;8.97;100.00;98796.78;6336093;22;19918;-86
2022/11/20 17:34:32;;;;;;;;;;;;;;;8.97;100.00;98799.41;6337745;22;20330;-86
2022/11/20 17:36:58;;;;;;;;;;;;;;;8.99;100.00;98794.91;6336503;22;20245;-89
2022/11/20 17:39:23;;;;;;;;;;;;;;;9.03;100.00;98795.59;6337149;22;19918;-87
2022/11/20 17:42:25;;;;;;;;;;;;;;;7.79;100.00;98801.66;6339192;22;19911;-86
2022/11/20 17:44:34;;;;;;;;;;;;;;;6.95;100.00;98797.59;6338063;22;19911;-86
2022/11/20 17:46:59;;;;;;;;;;;;;;;6.63;100.00;98792.78;6337476;22;20215;-85
2022/11/20 17:49:24;;;;;;;;;;;;;;;6.47;100.00;98804.88;6337287;22;19914;-86
2022/11/20 17:51:52;;;;;;;;;;;;;;;6.26;100.00;98791.69;6337554;22;20260;-88
2022/11/20 17:54:17;;;;;;;;;;;;;;;6.13;100.00;98793.13;6336834;22;19910;-88
2022/11/20 17:59:27;;;;;;;;;;;;;;;5.93;100.00;98796.50;6338502;22;20284;-89
2022/11/20 18:02:28;;;;;;;;;;;;;;;5.82;100.00;98783.78;6337999;22;19910;-87
2022/11/20 18:07:23;;;;;;;;;;;;;;;5.65;100.00;98773.94;6327198;22;19954;-87
2022/11/20 18:09:49;;;;;;;;;;;;;;;5.62;100.00;98780.16;6338181;22;19910;-86
2022/11/20 18:15:34;;;;;;;;;;;;;;;5.89;100.00;98785.25;6272502;22;19922;-87
2022/11/20 18:17:59;;;;;;;;;;;;;;;6.63;100.00;98794.56;6323488;22;20285;-87
2022/11/20 18:20:24;;;;;;;;;;;;;;;6.99;100.00;98801.78;6310830;22;19910;-86
2022/11/20 18:22:49;;;;;;;;;;;;;;;7.18;100.00;98791.28;6309156;22;19910;-88
2022/11/20 18:25:15;;;;;;;;;;;;;;;7.38;100.00;98779.84;6336754;22;19914;-87
2022/11/20 18:27:40;;;;;;;;;;;;;;;7.54;100.00;98777.38;6336790;22;19911;-88
2022/11/20 18:30:05;;;;;;;;;;;;;;;7.64;100.00;98779.50;6336998;22;19910;-86
2022/11/20 18:35:42;;;;;;;;;;;;;;;;;;;;;
2022/11/20 18:38:08;;;;;;;;;;;;;;;8.15;100.00;98786.75;6128389;23;19995;-87
2022/11/20 18:40:34;;;;;;;;;;;;;;;8.17;100.00;98784.94;6256088;22;19913;-86
2022/11/20 18:49:21;;;;;;;;;;;;;;;8.39;100.00;98773.28;6053412;23;19914;-86
2022/11/20 18:55:29;;;;;;;;;;;;;;;8.48;100.00;98771.06;6037627;23;19921;-88
2022/11/20 18:58:15;;;;;;;;;;;;;;;8.53;100.00;98769.06;5953784;24;20303;-87
2022/11/20 19:00:43;;;;;;;;;;;;;;;8.57;100.00;98758.34;6075348;22;19923;-88
2022/11/20 19:03:49;;;;;;;;;;;;;;;8.62;100.00;98767.75;6135467;22;19913;-90
2022/11/20 19:09:01;;;;;;;;;;;;;;;8.69;100.00;98740.06;6213427;23;19919;-93
2022/11/20 19:11:26;;;;;;;;;;;;;;;8.71;100.00;98727.66;6161676;22;19916;-86
2022/11/20 19:13:51;;;;;;;;;;;;;;;8.77;100.00;98736.19;6151035;23;19978;-88
2022/11/20 19:16:31;;;;;;;;;;;;;;;8.77;100.00;98752.88;6150788;23;19958;-87
2022/11/20 19:19:02;;;;;;;;;;;;;;;8.81;100.00;98766.81;6279120;22;20000;-88
2022/11/20 19:21:34;;;;;;;;;;;;;;;8.82;100.00;98761.44;6270286;22;22530;-88
2022/11/20 19:24:07;;;;;;;;;;;;;;;8.87;100.00;98767.34;6247106;22;20238;-89
2022/11/20 19:26:34;;;;;;;;;;;;;;;8.87;100.00;98763.81;6239063;22;19909;-89
2022/11/20 19:29:02;;;;;;;;;;;;;;;8.88;100.00;98761.09;6315748;22;19916;-88
2022/11/20 19:31:32;;;;;;;;;;;;;;;8.91;100.00;98750.38;6314942;22;19919;-85
2022/11/20 19:33:59;;;;;;;;;;;;;;;8.91;100.00;98744.25;6210811;23;19912;-88
2022/11/20 19:39:22;;;;;;;;;;;;;;;7.64;100.00;98770.72;6146523;22;19932;-86
2022/11/20 19:41:50;;;;;;;;;;;;;;;6.99;100.00;98770.16;6253559;22;19916;-88
2022/11/20 19:44:16;;;;;;;;;;;;;;;6.65;100.00;98761.13;6150806;23;19912;-86
2022/11/20 19:46:59;;;;;;;;;;;;;;;6.43;100.00;98769.06;6150231;23;19924;-87
2022/11/20 19:49:24;;;;;;;;;;;;;;;6.33;100.00;98780.00;6253369;22;19920;-87
2022/11/20 19:51:50;;;;;;;;;;;;;;;6.23;100.00;98791.81;6252359;22;19909;-87
2022/11/20 19:57:25;;;;;;;;;;;;;;;5.94;100.00;98785.06;6167898;22;20265;-88
2022/11/20 19:59:51;;;;;;;;;;;;;;;5.81;100.00;98792.59;6254047;22;19917;-88
2022/11/20 20:02:16;;;;;;;;;;;;;;;5.80;100.00;98789.09;6255827;22;19970;-90
2022/11/20 20:07:35;;;;;;;;;;;;;;;5.63;100.00;98789.75;6150486;22;20008;-89
2022/11/20 20:10:00;;;;;;;;;;;;;;;5.45;100.00;98799.19;6257402;22;20355;-87
2022/11/20 20:12:26;;;;;;;;;;;;;;;5.42;100.00;98801.91;6255179;22;19913;-88
2022/11/20 20:14:58;;;;;;;;;;;;;;;5.41;100.00;98796.75;6255123;22;19916;-87
2022/11/20 20:17:24;;;;;;;;;;;;;;;5.31;100.00;98800.63;6274368;22;19912;-86
2022/11/20 20:19:51;;;;;;;;;;;;;;;5.23;100.00;98801.78;6274871;22;20270;-89
2022/11/20 20:22:16;;;;;;;;;;;;;;;5.24;100.00;98803.47;6247951;22;19911;-86
2022/11/20 20:24:44;;;;;;;;;;;;;;;5.20;100.00;98806.25;6274691;22;19911;-87
2022/11/20 20:27:09;;;;;;;;;;;;;;;5.15;100.00;98802.94;6274836;22;20367;-86
2022/11/20 20:29:35;;;;;;;;;;;;;;;5.91;100.00;98804.44;6280343;22;19919;-87
2022/11/20 20:32:00;;;;;;;;;;;;;;;6.46;100.00;98808.41;6274679;22;19922;-91
2022/11/20 20:34:42;;;;;;;;;;;;;;;6.73;100.00;98812.53;6277554;22;19942;-88
2022/11/20 20:37:10;;;;;;;;;;;;;;;6.96;100.00;98818.59;6273334;22;19919;-89
2022/11/20 20:39:53;;;;;;;;;;;;;;;7.12;100.00;98821.41;6274609;22;20319;-87
2022/11/20 20:42:29;;;;;;;;;;;;;;;7.24;100.00;98823.50;6243970;22;19912;-88
2022/11/20 20:45:09;;;;;;;;;;;;;;;7.36;100.00;98822.09;6255009;22;19920;-88
2022/11/20 20:48:05;;;;;;;;;;;;;;;;;;;;;
2022/11/20 20:50:31;;;;;;;;;;;;;;;7.56;100.00;98826.47;6151847;23;19991;-92
2022/11/20 20:53:14;;;;;;;;;;;;;;;7.63;100.00;98819.97;6280156;22;19948;-90
2022/11/20 20:58:51;;;;;;;;;;;;;;;7.83;100.00;98826.09;6088717;23;19919;-94
2022/11/20 21:01:18;;;;;;;;;;;;;;;7.90;100.00;98824.06;6144069;23;20364;-89
2022/11/20 21:03:43;;;;;;;;;;;;;;;7.98;100.00;98800.78;6151409;23;20347;-90
2022/11/20 21:06:09;;;;;;;;;;;;;;;8.04;100.00;98808.41;6273776;22;19915;-89
2022/11/20 21:08:34;;;;;;;;;;;;;;;8.07;100.00;98805.59;6277485;22;20342;-90
2022/11/20 21:11:01;;;;;;;;;;;;;;;8.15;100.00;98821.06;6277170;22;19980;-90
2022/11/20 21:13:27;;;;;;;;;;;;;;;8.21;100.00;98815.50;6277783;22;19911;-90
2022/11/20 21:15:52;;;;;;;;;;;;;;;8.26;100.00;98817.91;6275408;22;19911;-88
2022/11/20 21:18:18;;;;;;;;;;;;;;;8.30;100.00;98822.13;6276272;22;20235;-93
2022/11/20 21:23:28;;;;;;;;;;;;;;;8.39;100.00;98818.16;6276082;22;19976;-90
2022/11/20 21:25:53;;;;;;;;;;;;;;;8.45;100.00;98813.47;6275668;22;19916;-89
2022/11/20 21:28:19;;;;;;;;;;;;;;;8.47;100.00;98814.28;6276413;22;19922;-92
2022/11/20 21:30:46;;;;;;;;;;;;;;;8.48;100.00;98805.41;6277624;22;19912;-87
2022/11/20 21:33:12;;;;;;;;;;;;;;;8.52;100.00;98816.66;6302556;22;19915;-91
2022/11/20 21:35:37;;;;;;;;;;;;;;;8.57;100.00;98809.38;6275564;22;19934;-92
2022/11/20 21:38:02;;;;;;;;;;;;;;;8.60;100.00;98811.88;6276126;22;19964;-90